Terminal Aerodrome Forecast
Issued by NWS

Home | Current Version | Previous Version | Text Only | Print | Product List | Glossary On
Versions: 1 2 3 4 5 6 7 8 9 10 11 12 13 14 15 16 17 18 19 20 21 22 23 24
000
FTUS45 KGJT 272338
TAFASE
TAF
KASE 272338Z 2800/2824 34007KT P6SM VCSH SCT090 SCT110
     FM280200 18004KT P6SM VCSH OVC060
     FM280500 19004KT 6SM -SHSNRA OVC045
     FM280700 VRB03KT 4SM -SHSN OVC025
     FM281500 VRB03KT 3SM -SHSNRA BKN025
     FM281700 32006KT 3SM -SHRA OVC035=

USA.gov is the U.S. government's official web portal to all federal, state and local government web resources and services.